Portada
METAR-TAF:

METAR-TAF

Aeroports :

Aeroport del Comtat de Rowan

Salisbury, Carolina del Nord, Estats Units d'Amèrica

latitud: 35-39N, longitud: 080-31W, altitud: 236 m

Observació

L'informe es va fer fa 24 minuts, a les 00:55 UTC
Vent calma
Temperatura 23°C
Humitat 89%
Pressió 1015 hPa
Visibilitat: 16.1 km
Núvols disperses a una alçada de 10000 ft

METAR: KRUQ 110055Z AUTO 00000KT 10SM SCT100 23/21 A2998 RMK AO2 T02270211

Hora: 21:19 (01:19 UTC)


TAF: manca

Observacions i pronòstics meteorològics de més de 4000 aeroports (METAR i TAF).

Les estacions disponibles són els punts grocs i vermells al mapa.

Posi el ratolí al punt desitjat per veure el nom de l'estació.

Feu clic per veure les observacions i els pronòstics meteorològics.

Per canviar el mapa: feu clic els botons verds amb una creu de color negre per apropar; al botó verd amb un guió per allunyar la imatge; o en les fletxes verdes per a mapes adjacents.


METAR-TAF: